sensor_id;sensor_type;location;lat;lon;timestamp;P1;durP1;ratioP1;P2;durP2;ratioP2
37051;SDS011;22964;52.272;13.356;2022-08-19T00:00:00;10.00;;;4.95;;
37051;SDS011;22964;52.272;13.356;2022-08-19T00:02:29;6.00;;;4.53;;
37051;SDS011;22964;52.272;13.356;2022-08-19T00:04:55;5.72;;;4.72;;
37051;SDS011;22964;52.272;13.356;2022-08-19T00:07:21;6.70;;;4.57;;
37051;SDS011;22964;52.272;13.356;2022-08-19T00:09:46;6.30;;;4.68;;
37051;SDS011;22964;52.272;13.356;2022-08-19T00:12:12;6.95;;;4.72;;
37051;SDS011;22964;52.272;13.356;2022-08-19T00:14:39;5.40;;;4.07;;
37051;SDS011;22964;52.272;13.356;2022-08-19T00:17:06;6.28;;;4.70;;
37051;SDS011;22964;52.272;13.356;2022-08-19T00:19:34;5.78;;;4.65;;
37051;SDS011;22964;52.272;13.356;2022-08-19T00:22:01;6.15;;;4.53;;
37051;SDS011;22964;52.272;13.356;2022-08-19T00:24:27;5.50;;;4.55;;
37051;SDS011;22964;52.272;13.356;2022-08-19T00:26:54;6.03;;;4.90;;
37051;SDS011;22964;52.272;13.356;2022-08-19T00:29:22;6.68;;;4.45;;
37051;SDS011;22964;52.272;13.356;2022-08-19T00:31:49;7.15;;;4.70;;
37051;SDS011;22964;52.272;13.356;2022-08-19T00:34:20;9.45;;;4.90;;
37051;SDS011;22964;52.272;13.356;2022-08-19T00:36:47;6.95;;;4.68;;
37051;SDS011;22964;52.272;13.356;2022-08-19T00:39:17;6.38;;;4.65;;
37051;SDS011;22964;52.272;13.356;2022-08-19T00:41:44;7.47;;;4.65;;
37051;SDS011;22964;52.272;13.356;2022-08-19T00:44:14;6.75;;;4.93;;
37051;SDS011;22964;52.272;13.356;2022-08-19T00:46:49;7.00;;;5.25;;
37051;SDS011;22964;52.272;13.356;2022-08-19T00:49:18;6.78;;;5.50;;
37051;SDS011;22964;52.272;13.356;2022-08-19T00:52:06;8.07;;;5.25;;
37051;SDS011;22964;52.272;13.356;2022-08-19T00:54:35;7.13;;;5.40;;
37051;SDS011;22964;52.272;13.356;2022-08-19T00:57:04;6.28;;;4.97;;
37051;SDS011;22964;52.272;13.356;2022-08-19T00:59:34;7.68;;;5.55;;
37051;SDS011;22964;52.272;13.356;2022-08-19T01:02:01;7.28;;;5.45;;
37051;SDS011;22964;52.272;13.356;2022-08-19T01:04:28;8.02;;;5.50;;
37051;SDS011;22964;52.272;13.356;2022-08-19T01:06:54;7.18;;;5.60;;
37051;SDS011;22964;52.272;13.356;2022-08-19T01:09:21;8.63;;;5.80;;
37051;SDS011;22964;52.272;13.356;2022-08-19T01:11:47;6.20;;;5.40;;
37051;SDS011;22964;52.272;13.356;2022-08-19T01:14:12;6.53;;;5.75;;
37051;SDS011;22964;52.272;13.356;2022-08-19T01:16:40;9.02;;;5.63;;
37051;SDS011;22964;52.272;13.356;2022-08-19T01:19:09;8.70;;;5.55;;
37051;SDS011;22964;52.272;13.356;2022-08-19T01:21:49;8.05;;;5.43;;
37051;SDS011;22964;52.272;13.356;2022-08-19T01:24:19;6.60;;;5.47;;
37051;SDS011;22964;52.272;13.356;2022-08-19T01:26:45;7.30;;;5.47;;
37051;SDS011;22964;52.272;13.356;2022-08-19T01:29:12;7.03;;;5.45;;
37051;SDS011;22964;52.272;13.356;2022-08-19T01:31:39;6.53;;;5.35;;
37051;SDS011;22964;52.272;13.356;2022-08-19T01:34:04;6.63;;;5.40;;
37051;SDS011;22964;52.272;13.356;2022-08-19T01:36:43;6.50;;;5.32;;
37051;SDS011;22964;52.272;13.356;2022-08-19T01:39:23;6.60;;;5.68;;
37051;SDS011;22964;52.272;13.356;2022-08-19T01:41:50;6.53;;;5.25;;
37051;SDS011;22964;52.272;13.356;2022-08-19T01:44:19;7.15;;;5.20;;
37051;SDS011;22964;52.272;13.356;2022-08-19T01:46:48;7.65;;;5.38;;
37051;SDS011;22964;52.272;13.356;2022-08-19T01:49:17;6.95;;;5.75;;
37051;SDS011;22964;52.272;13.356;2022-08-19T01:51:45;7.38;;;5.70;;
37051;SDS011;22964;52.272;13.356;2022-08-19T01:54:11;8.85;;;5.70;;
37051;SDS011;22964;52.272;13.356;2022-08-19T01:56:40;7.05;;;5.68;;
37051;SDS011;22964;52.272;13.356;2022-08-19T01:59:08;6.60;;;5.50;;
37051;SDS011;22964;52.272;13.356;2022-08-19T02:01:39;6.47;;;5.60;;
37051;SDS011;22964;52.272;13.356;2022-08-19T02:04:05;6.70;;;5.90;;
37051;SDS011;22964;52.272;13.356;2022-08-19T02:06:31;7.45;;;6.10;;
37051;SDS011;22964;52.272;13.356;2022-08-19T02:08:58;6.45;;;5.75;;
37051;SDS011;22964;52.272;13.356;2022-08-19T02:11:25;8.35;;;6.45;;
37051;SDS011;22964;52.272;13.356;2022-08-19T02:13:57;6.75;;;5.65;;
37051;SDS011;22964;52.272;13.356;2022-08-19T02:16:23;7.13;;;5.85;;
37051;SDS011;22964;52.272;13.356;2022-08-19T02:18:49;6.97;;;6.13;;
37051;SDS011;22964;52.272;13.356;2022-08-19T02:21:18;7.07;;;5.95;;
37051;SDS011;22964;52.272;13.356;2022-08-19T02:23:46;8.67;;;6.50;;
37051;SDS011;22964;52.272;13.356;2022-08-19T02:26:12;7.55;;;5.53;;
37051;SDS011;22964;52.272;13.356;2022-08-19T02:28:38;9.18;;;6.07;;
37051;SDS011;22964;52.272;13.356;2022-08-19T02:31:15;9.30;;;6.22;;
37051;SDS011;22964;52.272;13.356;2022-08-19T02:33:46;9.07;;;6.03;;
37051;SDS011;22964;52.272;13.356;2022-08-19T02:36:14;8.90;;;5.80;;
37051;SDS011;22964;52.272;13.356;2022-08-19T02:38:41;8.43;;;5.90;;
37051;SDS011;22964;52.272;13.356;2022-08-19T02:41:19;6.68;;;5.53;;
37051;SDS011;22964;52.272;13.356;2022-08-19T02:43:49;7.15;;;5.78;;
37051;SDS011;22964;52.272;13.356;2022-08-19T02:46:17;6.68;;;5.30;;
37051;SDS011;22964;52.272;13.356;2022-08-19T02:48:50;7.95;;;5.20;;
37051;SDS011;22964;52.272;13.356;2022-08-19T02:51:21;7.22;;;5.53;;
37051;SDS011;22964;52.272;13.356;2022-08-19T02:53:48;6.63;;;5.70;;
37051;SDS011;22964;52.272;13.356;2022-08-19T02:56:14;8.38;;;5.38;;
37051;SDS011;22964;52.272;13.356;2022-08-19T02:58:40;7.35;;;5.90;;
37051;SDS011;22964;52.272;13.356;2022-08-19T03:01:08;7.22;;;4.90;;
37051;SDS011;22964;52.272;13.356;2022-08-19T03:03:35;9.20;;;5.35;;
37051;SDS011;22964;52.272;13.356;2022-08-19T03:08:39;6.90;;;5.30;;
37051;SDS011;22964;52.272;13.356;2022-08-19T03:11:06;8.10;;;5.53;;
37051;SDS011;22964;52.272;13.356;2022-08-19T03:13:36;6.50;;;5.78;;
37051;SDS011;22964;52.272;13.356;2022-08-19T03:16:04;6.43;;;5.50;;
37051;SDS011;22964;52.272;13.356;2022-08-19T03:18:30;8.15;;;5.75;;
37051;SDS011;22964;52.272;13.356;2022-08-19T03:20:56;5.80;;;5.20;;
37051;SDS011;22964;52.272;13.356;2022-08-19T03:23:22;6.40;;;5.57;;
37051;SDS011;22964;52.272;13.356;2022-08-19T03:25:49;7.18;;;5.82;;
37051;SDS011;22964;52.272;13.356;2022-08-19T03:28:17;6.85;;;5.97;;
37051;SDS011;22964;52.272;13.356;2022-08-19T03:30:53;6.45;;;5.53;;
37051;SDS011;22964;52.272;13.356;2022-08-19T03:33:24;6.63;;;5.77;;
37051;SDS011;22964;52.272;13.356;2022-08-19T03:38:49;8.07;;;5.53;;
37051;SDS011;22964;52.272;13.356;2022-08-19T03:41:18;9.85;;;6.00;;
37051;SDS011;22964;52.272;13.356;2022-08-19T03:43:45;8.32;;;6.35;;
37051;SDS011;22964;52.272;13.356;2022-08-19T03:46:16;7.20;;;5.70;;
37051;SDS011;22964;52.272;13.356;2022-08-19T03:48:45;8.15;;;6.32;;
37051;SDS011;22964;52.272;13.356;2022-08-19T03:51:16;7.93;;;6.20;;
37051;SDS011;22964;52.272;13.356;2022-08-19T03:53:52;7.65;;;5.93;;
37051;SDS011;22964;52.272;13.356;2022-08-19T03:56:20;6.75;;;5.68;;
37051;SDS011;22964;52.272;13.356;2022-08-19T03:58:46;7.78;;;5.82;;
37051;SDS011;22964;52.272;13.356;2022-08-19T04:01:15;8.48;;;6.25;;
37051;SDS011;22964;52.272;13.356;2022-08-19T04:03:43;6.50;;;5.73;;
37051;SDS011;22964;52.272;13.356;2022-08-19T04:06:15;7.32;;;6.22;;
37051;SDS011;22964;52.272;13.356;2022-08-19T04:08:44;7.78;;;6.30;;
37051;SDS011;22964;52.272;13.356;2022-08-19T04:11:12;7.55;;;6.65;;
37051;SDS011;22964;52.272;13.356;2022-08-19T04:13:39;8.70;;;6.47;;
37051;SDS011;22964;52.272;13.356;2022-08-19T04:16:06;7.70;;;6.50;;
37051;SDS011;22964;52.272;13.356;2022-08-19T04:18:34;7.85;;;6.70;;
37051;SDS011;22964;52.272;13.356;2022-08-19T04:21:00;7.63;;;6.28;;
37051;SDS011;22964;52.272;13.356;2022-08-19T04:23:26;9.40;;;6.72;;
37051;SDS011;22964;52.272;13.356;2022-08-19T04:25:53;7.95;;;6.47;;
37051;SDS011;22964;52.272;13.356;2022-08-19T04:28:19;7.65;;;6.32;;
37051;SDS011;22964;52.272;13.356;2022-08-19T04:30:47;7.90;;;6.45;;
37051;SDS011;22964;52.272;13.356;2022-08-19T04:33:15;7.50;;;6.40;;
37051;SDS011;22964;52.272;13.356;2022-08-19T04:35:44;8.70;;;6.50;;
37051;SDS011;22964;52.272;13.356;2022-08-19T04:38:11;8.65;;;6.65;;
37051;SDS011;22964;52.272;13.356;2022-08-19T04:40:41;8.68;;;6.50;;
37051;SDS011;22964;52.272;13.356;2022-08-19T04:43:26;7.85;;;6.70;;
37051;SDS011;22964;52.272;13.356;2022-08-19T04:45:52;7.68;;;6.57;;
37051;SDS011;22964;52.272;13.356;2022-08-19T04:48:18;9.68;;;6.43;;
37051;SDS011;22964;52.272;13.356;2022-08-19T04:50:51;9.88;;;6.70;;
37051;SDS011;22964;52.272;13.356;2022-08-19T04:55:53;9.10;;;6.47;;
37051;SDS011;22964;52.272;13.356;2022-08-19T04:58:20;8.65;;;6.95;;
37051;SDS011;22964;52.272;13.356;2022-08-19T05:00:45;7.82;;;6.63;;
37051;SDS011;22964;52.272;13.356;2022-08-19T05:03:11;8.27;;;6.18;;
37051;SDS011;22964;52.272;13.356;2022-08-19T05:05:39;8.93;;;6.85;;
37051;SDS011;22964;52.272;13.356;2022-08-19T05:08:05;8.60;;;7.30;;
37051;SDS011;22964;52.272;13.356;2022-08-19T05:10:34;10.30;;;6.65;;
37051;SDS011;22964;52.272;13.356;2022-08-19T05:13:02;7.78;;;6.63;;
37051;SDS011;22964;52.272;13.356;2022-08-19T05:15:28;9.23;;;7.07;;
37051;SDS011;22964;52.272;13.356;2022-08-19T05:17:54;10.30;;;6.38;;
37051;SDS011;22964;52.272;13.356;2022-08-19T05:20:38;7.18;;;6.10;;
37051;SDS011;22964;52.272;13.356;2022-08-19T05:23:23;7.50;;;6.50;;
37051;SDS011;22964;52.272;13.356;2022-08-19T05:25:49;7.07;;;6.03;;
37051;SDS011;22964;52.272;13.356;2022-08-19T05:28:16;6.95;;;6.20;;
37051;SDS011;22964;52.272;13.356;2022-08-19T05:30:43;7.63;;;6.47;;
37051;SDS011;22964;52.272;13.356;2022-08-19T05:33:10;8.40;;;6.03;;
37051;SDS011;22964;52.272;13.356;2022-08-19T05:35:37;8.20;;;7.00;;
37051;SDS011;22964;52.272;13.356;2022-08-19T05:38:04;7.25;;;6.38;;
37051;SDS011;22964;52.272;13.356;2022-08-19T05:40:33;9.13;;;6.88;;
37051;SDS011;22964;52.272;13.356;2022-08-19T05:43:01;7.20;;;6.40;;
37051;SDS011;22964;52.272;13.356;2022-08-19T05:45:29;7.10;;;5.90;;
37051;SDS011;22964;52.272;13.356;2022-08-19T05:47:54;9.43;;;6.45;;
37051;SDS011;22964;52.272;13.356;2022-08-19T05:50:20;6.65;;;5.65;;
37051;SDS011;22964;52.272;13.356;2022-08-19T05:52:46;8.18;;;6.63;;
37051;SDS011;22964;52.272;13.356;2022-08-19T05:55:12;8.60;;;6.43;;
37051;SDS011;22964;52.272;13.356;2022-08-19T05:57:38;7.53;;;6.35;;
37051;SDS011;22964;52.272;13.356;2022-08-19T06:00:04;7.45;;;6.03;;
37051;SDS011;22964;52.272;13.356;2022-08-19T06:02:37;9.18;;;6.20;;
37051;SDS011;22964;52.272;13.356;2022-08-19T06:05:03;7.85;;;5.93;;
37051;SDS011;22964;52.272;13.356;2022-08-19T06:07:34;8.68;;;6.53;;
37051;SDS011;22964;52.272;13.356;2022-08-19T06:10:01;7.93;;;6.32;;
37051;SDS011;22964;52.272;13.356;2022-08-19T06:12:29;9.05;;;6.28;;
37051;SDS011;22964;52.272;13.356;2022-08-19T06:15:04;7.45;;;6.32;;
37051;SDS011;22964;52.272;13.356;2022-08-19T06:17:32;6.82;;;5.88;;
37051;SDS011;22964;52.272;13.356;2022-08-19T06:20:00;9.38;;;6.68;;
37051;SDS011;22964;52.272;13.356;2022-08-19T06:22:26;7.75;;;6.53;;
37051;SDS011;22964;52.272;13.356;2022-08-19T06:24:52;8.15;;;7.03;;
37051;SDS011;22964;52.272;13.356;2022-08-19T06:27:19;7.22;;;6.40;;
37051;SDS011;22964;52.272;13.356;2022-08-19T06:29:45;8.38;;;6.65;;
37051;SDS011;22964;52.272;13.356;2022-08-19T06:32:12;8.15;;;6.43;;
37051;SDS011;22964;52.272;13.356;2022-08-19T06:34:41;8.00;;;6.70;;
37051;SDS011;22964;52.272;13.356;2022-08-19T06:37:07;7.90;;;5.95;;
37051;SDS011;22964;52.272;13.356;2022-08-19T06:39:34;7.45;;;6.20;;
37051;SDS011;22964;52.272;13.356;2022-08-19T06:42:04;8.02;;;6.15;;
37051;SDS011;22964;52.272;13.356;2022-08-19T06:44:34;7.78;;;6.10;;
37051;SDS011;22964;52.272;13.356;2022-08-19T06:47:05;8.02;;;6.45;;
37051;SDS011;22964;52.272;13.356;2022-08-19T06:49:32;10.70;;;6.70;;
37051;SDS011;22964;52.272;13.356;2022-08-19T06:51:59;8.30;;;6.35;;
37051;SDS011;22964;52.272;13.356;2022-08-19T06:54:26;7.03;;;6.32;;
37051;SDS011;22964;52.272;13.356;2022-08-19T06:56:54;7.18;;;6.47;;
37051;SDS011;22964;52.272;13.356;2022-08-19T06:59:22;6.65;;;5.85;;
37051;SDS011;22964;52.272;13.356;2022-08-19T07:01:52;8.10;;;5.97;;
37051;SDS011;22964;52.272;13.356;2022-08-19T07:04:22;7.50;;;6.13;;
37051;SDS011;22964;52.272;13.356;2022-08-19T07:06:55;7.53;;;6.20;;
37051;SDS011;22964;52.272;13.356;2022-08-19T07:09:23;9.15;;;6.50;;
37051;SDS011;22964;52.272;13.356;2022-08-19T07:11:49;8.45;;;6.00;;
37051;SDS011;22964;52.272;13.356;2022-08-19T07:14:18;7.97;;;6.13;;
37051;SDS011;22964;52.272;13.356;2022-08-19T07:16:45;8.27;;;6.53;;
37051;SDS011;22964;52.272;13.356;2022-08-19T07:19:13;7.57;;;6.47;;
37051;SDS011;22964;52.272;13.356;2022-08-19T07:21:39;9.55;;;6.57;;
37051;SDS011;22964;52.272;13.356;2022-08-19T07:24:06;7.25;;;6.55;;
37051;SDS011;22964;52.272;13.356;2022-08-19T07:26:35;9.27;;;6.50;;
37051;SDS011;22964;52.272;13.356;2022-08-19T07:29:04;8.20;;;6.50;;
37051;SDS011;22964;52.272;13.356;2022-08-19T07:31:30;7.55;;;6.13;;
37051;SDS011;22964;52.272;13.356;2022-08-19T07:33:56;8.85;;;6.35;;
37051;SDS011;22964;52.272;13.356;2022-08-19T07:36:24;8.20;;;6.65;;
37051;SDS011;22964;52.272;13.356;2022-08-19T07:38:53;7.53;;;6.60;;
37051;SDS011;22964;52.272;13.356;2022-08-19T07:41:22;9.07;;;6.15;;
37051;SDS011;22964;52.272;13.356;2022-08-19T07:43:49;8.57;;;6.10;;
37051;SDS011;22964;52.272;13.356;2022-08-19T07:46:16;7.82;;;6.55;;
37051;SDS011;22964;52.272;13.356;2022-08-19T07:48:43;7.95;;;6.70;;
37051;SDS011;22964;52.272;13.356;2022-08-19T07:51:12;9.13;;;6.82;;
37051;SDS011;22964;52.272;13.356;2022-08-19T07:53:40;10.10;;;7.00;;
37051;SDS011;22964;52.272;13.356;2022-08-19T07:56:06;7.25;;;6.47;;
37051;SDS011;22964;52.272;13.356;2022-08-19T07:58:33;7.75;;;6.35;;
37051;SDS011;22964;52.272;13.356;2022-08-19T08:01:02;9.27;;;7.55;;
37051;SDS011;22964;52.272;13.356;2022-08-19T08:03:29;7.82;;;6.35;;
37051;SDS011;22964;52.272;13.356;2022-08-19T08:06:20;7.15;;;6.20;;
37051;SDS011;22964;52.272;13.356;2022-08-19T08:09:05;7.55;;;6.68;;
37051;SDS011;22964;52.272;13.356;2022-08-19T08:11:37;9.48;;;7.35;;
37051;SDS011;22964;52.272;13.356;2022-08-19T08:14:05;11.48;;;7.47;;
37051;SDS011;22964;52.272;13.356;2022-08-19T08:16:35;10.55;;;6.80;;
37051;SDS011;22964;52.272;13.356;2022-08-19T08:19:03;6.95;;;6.22;;
37051;SDS011;22964;52.272;13.356;2022-08-19T08:21:31;10.27;;;6.95;;
37051;SDS011;22964;52.272;13.356;2022-08-19T08:23:58;9.20;;;6.90;;
37051;SDS011;22964;52.272;13.356;2022-08-19T08:26:24;8.95;;;7.10;;
37051;SDS011;22964;52.272;13.356;2022-08-19T08:28:50;8.15;;;7.28;;
37051;SDS011;22964;52.272;13.356;2022-08-19T08:31:19;10.38;;;7.22;;
37051;SDS011;22964;52.272;13.356;2022-08-19T08:33:45;8.20;;;7.20;;
37051;SDS011;22964;52.272;13.356;2022-08-19T08:36:13;7.72;;;6.93;;
37051;SDS011;22964;52.272;13.356;2022-08-19T08:38:40;14.98;;;7.30;;
37051;SDS011;22964;52.272;13.356;2022-08-19T08:47:11;8.48;;;6.38;;
37051;SDS011;22964;52.272;13.356;2022-08-19T08:52:21;9.23;;;7.40;;
37051;SDS011;22964;52.272;13.356;2022-08-19T08:55:05;9.60;;;7.32;;
37051;SDS011;22964;52.272;13.356;2022-08-19T09:00:15;8.30;;;7.18;;
37051;SDS011;22964;52.272;13.356;2022-08-19T09:02:47;8.73;;;7.53;;
37051;SDS011;22964;52.272;13.356;2022-08-19T09:05:13;9.02;;;7.80;;
37051;SDS011;22964;52.272;13.356;2022-08-19T09:15:54;9.50;;;8.27;;
37051;SDS011;22964;52.272;13.356;2022-08-19T09:18:26;9.20;;;8.07;;
37051;SDS011;22964;52.272;13.356;2022-08-19T09:21:03;9.75;;;8.30;;
37051;SDS011;22964;52.272;13.356;2022-08-19T09:23:28;10.60;;;8.40;;
37051;SDS011;22964;52.272;13.356;2022-08-19T09:25:54;9.20;;;8.18;;
37051;SDS011;22964;52.272;13.356;2022-08-19T09:28:20;9.10;;;8.20;;
37051;SDS011;22964;52.272;13.356;2022-08-19T09:30:45;10.82;;;8.75;;
37051;SDS011;22964;52.272;13.356;2022-08-19T09:33:11;10.45;;;7.80;;
37051;SDS011;22964;52.272;13.356;2022-08-19T09:35:37;10.35;;;9.02;;
37051;SDS011;22964;52.272;13.356;2022-08-19T09:38:02;10.20;;;8.60;;
37051;SDS011;22964;52.272;13.356;2022-08-19T09:40:28;10.02;;;7.95;;
37051;SDS011;22964;52.272;13.356;2022-08-19T09:42:55;9.13;;;8.13;;
37051;SDS011;22964;52.272;13.356;2022-08-19T09:45:22;9.43;;;8.27;;
37051;SDS011;22964;52.272;13.356;2022-08-19T09:47:48;9.65;;;8.18;;
37051;SDS011;22964;52.272;13.356;2022-08-19T09:50:16;10.65;;;8.52;;
37051;SDS011;22964;52.272;13.356;2022-08-19T09:52:43;10.25;;;8.63;;
37051;SDS011;22964;52.272;13.356;2022-08-19T09:55:09;9.38;;;8.30;;
37051;SDS011;22964;52.272;13.356;2022-08-19T09:57:36;10.00;;;8.50;;
37051;SDS011;22964;52.272;13.356;2022-08-19T10:00:03;9.60;;;8.65;;
37051;SDS011;22964;52.272;13.356;2022-08-19T10:02:32;8.93;;;8.02;;
37051;SDS011;22964;52.272;13.356;2022-08-19T10:04:59;10.95;;;8.02;;
37051;SDS011;22964;52.272;13.356;2022-08-19T10:07:43;10.98;;;9.15;;
37051;SDS011;22964;52.272;13.356;2022-08-19T10:10:09;10.05;;;8.52;;
37051;SDS011;22964;52.272;13.356;2022-08-19T10:12:35;10.27;;;8.48;;
37051;SDS011;22964;52.272;13.356;2022-08-19T10:15:02;9.52;;;8.63;;
37051;SDS011;22964;52.272;13.356;2022-08-19T10:17:29;9.70;;;8.13;;
37051;SDS011;22964;52.272;13.356;2022-08-19T10:19:55;8.95;;;8.05;;
37051;SDS011;22964;52.272;13.356;2022-08-19T10:22:20;9.25;;;7.93;;
37051;SDS011;22964;52.272;13.356;2022-08-19T10:24:47;8.90;;;7.60;;
37051;SDS011;22964;52.272;13.356;2022-08-19T10:27:14;8.63;;;7.05;;
37051;SDS011;22964;52.272;13.356;2022-08-19T10:29:41;8.60;;;7.47;;
37051;SDS011;22964;52.272;13.356;2022-08-19T10:32:07;8.15;;;7.22;;
37051;SDS011;22964;52.272;13.356;2022-08-19T10:34:34;8.25;;;7.18;;
37051;SDS011;22964;52.272;13.356;2022-08-19T10:37:02;7.97;;;7.00;;
37051;SDS011;22964;52.272;13.356;2022-08-19T10:39:31;7.63;;;6.70;;
37051;SDS011;22964;52.272;13.356;2022-08-19T10:41:58;7.82;;;7.00;;
37051;SDS011;22964;52.272;13.356;2022-08-19T10:44:24;7.85;;;6.75;;
37051;SDS011;22964;52.272;13.356;2022-08-19T10:46:50;7.03;;;6.28;;
37051;SDS011;22964;52.272;13.356;2022-08-19T10:49:17;7.75;;;6.43;;
37051;SDS011;22964;52.272;13.356;2022-08-19T10:51:44;7.80;;;7.00;;
37051;SDS011;22964;52.272;13.356;2022-08-19T10:54:28;8.63;;;6.57;;
37051;SDS011;22964;52.272;13.356;2022-08-19T10:57:13;12.63;;;9.00;;
37051;SDS011;22964;52.272;13.356;2022-08-19T10:59:40;11.48;;;9.20;;
37051;SDS011;22964;52.272;13.356;2022-08-19T11:02:07;13.23;;;9.85;;
37051;SDS011;22964;52.272;13.356;2022-08-19T11:04:37;12.60;;;9.95;;
37051;SDS011;22964;52.272;13.356;2022-08-19T11:07:04;13.23;;;10.43;;
37051;SDS011;22964;52.272;13.356;2022-08-19T11:09:31;12.45;;;9.95;;
37051;SDS011;22964;52.272;13.356;2022-08-19T11:12:02;12.15;;;9.73;;
37051;SDS011;22964;52.272;13.356;2022-08-19T11:14:28;12.82;;;9.98;;
37051;SDS011;22964;52.272;13.356;2022-08-19T11:16:56;11.02;;;9.90;;
37051;SDS011;22964;52.272;13.356;2022-08-19T11:19:22;15.10;;;10.20;;
37051;SDS011;22964;52.272;13.356;2022-08-19T11:21:49;12.07;;;9.77;;
37051;SDS011;22964;52.272;13.356;2022-08-19T11:24:17;11.88;;;10.65;;
37051;SDS011;22964;52.272;13.356;2022-08-19T11:26:48;12.88;;;10.90;;
37051;SDS011;22964;52.272;13.356;2022-08-19T11:29:15;13.10;;;10.52;;
37051;SDS011;22964;52.272;13.356;2022-08-19T11:31:43;13.07;;;11.02;;
37051;SDS011;22964;52.272;13.356;2022-08-19T11:34:11;12.10;;;10.85;;
37051;SDS011;22964;52.272;13.356;2022-08-19T11:36:44;13.30;;;10.60;;
37051;SDS011;22964;52.272;13.356;2022-08-19T11:39:13;13.93;;;10.30;;
37051;SDS011;22964;52.272;13.356;2022-08-19T11:41:45;12.80;;;11.20;;
37051;SDS011;22964;52.272;13.356;2022-08-19T11:44:12;12.90;;;11.25;;
37051;SDS011;22964;52.272;13.356;2022-08-19T11:46:39;12.35;;;10.68;;
37051;SDS011;22964;52.272;13.356;2022-08-19T11:49:06;14.02;;;11.23;;
37051;SDS011;22964;52.272;13.356;2022-08-19T11:51:34;12.07;;;10.77;;
37051;SDS011;22964;52.272;13.356;2022-08-19T11:54:00;12.85;;;10.90;;
37051;SDS011;22964;52.272;13.356;2022-08-19T11:56:26;14.32;;;10.95;;
37051;SDS011;22964;52.272;13.356;2022-08-19T11:58:53;13.18;;;10.80;;
37051;SDS011;22964;52.272;13.356;2022-08-19T12:01:22;13.48;;;10.52;;
37051;SDS011;22964;52.272;13.356;2022-08-19T12:03:49;14.25;;;11.43;;
37051;SDS011;22964;52.272;13.356;2022-08-19T12:06:23;12.50;;;10.80;;
37051;SDS011;22964;52.272;13.356;2022-08-19T12:08:53;14.23;;;10.73;;
37051;SDS011;22964;52.272;13.356;2022-08-19T12:11:23;13.63;;;11.77;;
37051;SDS011;22964;52.272;13.356;2022-08-19T12:13:49;14.88;;;11.70;;
37051;SDS011;22964;52.272;13.356;2022-08-19T12:16:20;14.82;;;11.80;;
37051;SDS011;22964;52.272;13.356;2022-08-19T12:18:49;14.02;;;11.23;;
37051;SDS011;22964;52.272;13.356;2022-08-19T12:21:17;13.52;;;11.02;;
37051;SDS011;22964;52.272;13.356;2022-08-19T12:23:47;13.60;;;10.95;;
37051;SDS011;22964;52.272;13.356;2022-08-19T12:26:14;14.90;;;10.75;;
37051;SDS011;22964;52.272;13.356;2022-08-19T12:28:40;13.57;;;11.45;;
37051;SDS011;22964;52.272;13.356;2022-08-19T12:31:06;13.88;;;11.10;;
37051;SDS011;22964;52.272;13.356;2022-08-19T12:33:33;14.35;;;10.88;;
37051;SDS011;22964;52.272;13.356;2022-08-19T12:36:03;15.55;;;11.35;;
37051;SDS011;22964;52.272;13.356;2022-08-19T12:40:57;12.85;;;10.05;;
37051;SDS011;22964;52.272;13.356;2022-08-19T12:43:23;12.15;;;10.07;;
37051;SDS011;22964;52.272;13.356;2022-08-19T12:45:49;13.23;;;10.10;;
37051;SDS011;22964;52.272;13.356;2022-08-19T12:48:15;11.60;;;9.90;;
37051;SDS011;22964;52.272;13.356;2022-08-19T12:50:42;12.07;;;10.70;;
37051;SDS011;22964;52.272;13.356;2022-08-19T12:53:10;12.13;;;10.23;;
37051;SDS011;22964;52.272;13.356;2022-08-19T12:55:37;12.55;;;10.30;;
37051;SDS011;22964;52.272;13.356;2022-08-19T12:58:02;13.20;;;10.70;;
37051;SDS011;22964;52.272;13.356;2022-08-19T13:00:28;12.32;;;10.25;;
37051;SDS011;22964;52.272;13.356;2022-08-19T13:02:55;12.20;;;10.43;;
37051;SDS011;22964;52.272;13.356;2022-08-19T13:05:22;12.20;;;10.32;;
37051;SDS011;22964;52.272;13.356;2022-08-19T13:07:50;11.63;;;9.77;;
37051;SDS011;22964;52.272;13.356;2022-08-19T13:10:18;14.43;;;10.38;;
37051;SDS011;22964;52.272;13.356;2022-08-19T13:12:46;12.32;;;10.32;;
37051;SDS011;22964;52.272;13.356;2022-08-19T13:15:14;13.50;;;10.77;;
37051;SDS011;22964;52.272;13.356;2022-08-19T13:17:45;12.97;;;9.80;;
37051;SDS011;22964;52.272;13.356;2022-08-19T13:20:14;12.90;;;10.75;;
37051;SDS011;22964;52.272;13.356;2022-08-19T13:22:40;12.38;;;10.23;;
37051;SDS011;22964;52.272;13.356;2022-08-19T13:25:07;12.82;;;10.13;;
37051;SDS011;22964;52.272;13.356;2022-08-19T13:27:34;11.63;;;9.55;;
37051;SDS011;22964;52.272;13.356;2022-08-19T13:30:01;14.80;;;10.07;;
37051;SDS011;22964;52.272;13.356;2022-08-19T13:32:46;11.52;;;9.27;;
37051;SDS011;22964;52.272;13.356;2022-08-19T13:35:31;12.70;;;9.13;;
37051;SDS011;22964;52.272;13.356;2022-08-19T13:37:56;10.70;;;9.02;;
37051;SDS011;22964;52.272;13.356;2022-08-19T13:40:23;11.18;;;8.90;;
37051;SDS011;22964;52.272;13.356;2022-08-19T13:42:52;9.70;;;8.15;;
37051;SDS011;22964;52.272;13.356;2022-08-19T13:45:20;11.85;;;8.95;;
37051;SDS011;22964;52.272;13.356;2022-08-19T13:47:48;10.13;;;8.43;;
37051;SDS011;22964;52.272;13.356;2022-08-19T13:50:17;12.35;;;8.38;;
37051;SDS011;22964;52.272;13.356;2022-08-19T13:52:44;10.32;;;8.40;;
37051;SDS011;22964;52.272;13.356;2022-08-19T13:55:12;9.07;;;7.68;;
37051;SDS011;22964;52.272;13.356;2022-08-19T13:57:39;10.15;;;7.93;;
37051;SDS011;22964;52.272;13.356;2022-08-19T14:00:15;10.63;;;7.78;;
37051;SDS011;22964;52.272;13.356;2022-08-19T14:02:43;10.10;;;8.60;;
37051;SDS011;22964;52.272;13.356;2022-08-19T14:05:11;9.73;;;7.72;;
37051;SDS011;22964;52.272;13.356;2022-08-19T14:07:39;9.27;;;8.02;;
37051;SDS011;22964;52.272;13.356;2022-08-19T14:10:06;9.60;;;7.50;;
37051;SDS011;22964;52.272;13.356;2022-08-19T14:12:34;10.80;;;8.43;;
37051;SDS011;22964;52.272;13.356;2022-08-19T14:15:00;10.35;;;7.28;;
37051;SDS011;22964;52.272;13.356;2022-08-19T14:17:28;9.38;;;7.57;;
37051;SDS011;22964;52.272;13.356;2022-08-19T14:19:57;12.68;;;7.55;;
37051;SDS011;22964;52.272;13.356;2022-08-19T14:22:26;8.18;;;7.38;;
37051;SDS011;22964;52.272;13.356;2022-08-19T14:24:52;8.15;;;7.07;;
37051;SDS011;22964;52.272;13.356;2022-08-19T14:27:18;8.23;;;6.78;;
37051;SDS011;22964;52.272;13.356;2022-08-19T14:29:43;8.93;;;7.30;;
37051;SDS011;22964;52.272;13.356;2022-08-19T14:32:10;9.68;;;6.80;;
37051;SDS011;22964;52.272;13.356;2022-08-19T14:34:37;8.63;;;7.40;;
37051;SDS011;22964;52.272;13.356;2022-08-19T14:37:03;7.82;;;7.00;;
37051;SDS011;22964;52.272;13.356;2022-08-19T14:39:28;8.40;;;6.60;;
37051;SDS011;22964;52.272;13.356;2022-08-19T14:41:54;8.90;;;7.35;;
37051;SDS011;22964;52.272;13.356;2022-08-19T14:44:21;7.47;;;6.35;;
37051;SDS011;22964;52.272;13.356;2022-08-19T14:46:47;7.45;;;6.70;;
37051;SDS011;22964;52.272;13.356;2022-08-19T14:49:13;7.93;;;6.93;;
37051;SDS011;22964;52.272;13.356;2022-08-19T14:51:38;8.18;;;6.88;;
37051;SDS011;22964;52.272;13.356;2022-08-19T14:54:04;8.27;;;6.38;;
37051;SDS011;22964;52.272;13.356;2022-08-19T14:56:30;7.40;;;6.47;;
37051;SDS011;22964;52.272;13.356;2022-08-19T14:58:56;8.20;;;6.65;;
37051;SDS011;22964;52.272;13.356;2022-08-19T15:01:26;7.88;;;6.63;;
37051;SDS011;22964;52.272;13.356;2022-08-19T15:03:52;7.85;;;6.95;;